sensor_id;sensor_type;location;lat;lon;timestamp;P1;durP1;ratioP1;P2;durP2;ratioP2
19111;SDS011;9688;51.906;8.376;2023-04-07T00:00:29;14.00;;;9.27;;
19111;SDS011;9688;51.906;8.376;2023-04-07T00:03:15;15.17;;;9.77;;
19111;SDS011;9688;51.906;8.376;2023-04-07T00:06:00;15.63;;;9.73;;
19111;SDS011;9688;51.906;8.376;2023-04-07T00:08:46;14.73;;;10.00;;
19111;SDS011;9688;51.906;8.376;2023-04-07T00:11:32;15.53;;;10.13;;
19111;SDS011;9688;51.906;8.376;2023-04-07T00:14:18;15.90;;;10.23;;
19111;SDS011;9688;51.906;8.376;2023-04-07T00:17:03;19.20;;;10.83;;
19111;SDS011;9688;51.906;8.376;2023-04-07T00:19:49;15.50;;;10.20;;
19111;SDS011;9688;51.906;8.376;2023-04-07T00:22:35;14.17;;;9.73;;
19111;SDS011;9688;51.906;8.376;2023-04-07T00:25:20;16.47;;;10.13;;
19111;SDS011;9688;51.906;8.376;2023-04-07T00:28:08;14.80;;;9.80;;
19111;SDS011;9688;51.906;8.376;2023-04-07T00:30:54;14.23;;;9.47;;
19111;SDS011;9688;51.906;8.376;2023-04-07T00:33:39;15.67;;;9.87;;
19111;SDS011;9688;51.906;8.376;2023-04-07T00:36:25;12.97;;;8.70;;
19111;SDS011;9688;51.906;8.376;2023-04-07T00:39:11;13.03;;;8.50;;
19111;SDS011;9688;51.906;8.376;2023-04-07T00:41:56;13.43;;;8.87;;
19111;SDS011;9688;51.906;8.376;2023-04-07T00:44:43;12.97;;;8.70;;
19111;SDS011;9688;51.906;8.376;2023-04-07T00:47:29;12.70;;;8.50;;
19111;SDS011;9688;51.906;8.376;2023-04-07T00:50:15;12.53;;;8.17;;
19111;SDS011;9688;51.906;8.376;2023-04-07T00:53:00;13.53;;;8.53;;
19111;SDS011;9688;51.906;8.376;2023-04-07T00:55:46;12.20;;;8.07;;
19111;SDS011;9688;51.906;8.376;2023-04-07T00:58:32;10.90;;;7.27;;
19111;SDS011;9688;51.906;8.376;2023-04-07T01:01:20;12.10;;;7.97;;
19111;SDS011;9688;51.906;8.376;2023-04-07T01:04:10;12.47;;;8.40;;
19111;SDS011;9688;51.906;8.376;2023-04-07T01:07:04;10.83;;;8.30;;
19111;SDS011;9688;51.906;8.376;2023-04-07T01:09:57;11.83;;;8.13;;
19111;SDS011;9688;51.906;8.376;2023-04-07T01:12:50;12.20;;;7.87;;
19111;SDS011;9688;51.906;8.376;2023-04-07T01:15:41;11.10;;;7.77;;
19111;SDS011;9688;51.906;8.376;2023-04-07T01:18:34;12.07;;;7.43;;
19111;SDS011;9688;51.906;8.376;2023-04-07T01:21:22;10.77;;;7.83;;
19111;SDS011;9688;51.906;8.376;2023-04-07T01:24:21;11.93;;;8.27;;
19111;SDS011;9688;51.906;8.376;2023-04-07T01:27:24;11.27;;;7.10;;
19111;SDS011;9688;51.906;8.376;2023-04-07T01:30:22;12.20;;;7.57;;
19111;SDS011;9688;51.906;8.376;2023-04-07T01:33:11;11.80;;;7.67;;
19111;SDS011;9688;51.906;8.376;2023-04-07T01:35:59;10.83;;;7.77;;
19111;SDS011;9688;51.906;8.376;2023-04-07T01:38:46;11.00;;;7.07;;
19111;SDS011;9688;51.906;8.376;2023-04-07T01:41:35;12.53;;;7.53;;
19111;SDS011;9688;51.906;8.376;2023-04-07T01:44:22;10.17;;;6.87;;
19111;SDS011;9688;51.906;8.376;2023-04-07T01:47:11;10.63;;;7.13;;
19111;SDS011;9688;51.906;8.376;2023-04-07T01:49:58;9.67;;;6.77;;
19111;SDS011;9688;51.906;8.376;2023-04-07T01:52:50;11.20;;;7.70;;
19111;SDS011;9688;51.906;8.376;2023-04-07T01:55:37;11.43;;;7.40;;
19111;SDS011;9688;51.906;8.376;2023-04-07T01:58:23;9.67;;;7.10;;
19111;SDS011;9688;51.906;8.376;2023-04-07T02:01:10;10.47;;;6.77;;
19111;SDS011;9688;51.906;8.376;2023-04-07T02:03:59;10.60;;;7.60;;
19111;SDS011;9688;51.906;8.376;2023-04-07T02:06:55;11.03;;;7.17;;
19111;SDS011;9688;51.906;8.376;2023-04-07T02:09:45;9.63;;;7.40;;
19111;SDS011;9688;51.906;8.376;2023-04-07T02:12:32;10.43;;;7.37;;
19111;SDS011;9688;51.906;8.376;2023-04-07T02:15:19;10.17;;;7.23;;
19111;SDS011;9688;51.906;8.376;2023-04-07T02:18:06;10.03;;;7.03;;
19111;SDS011;9688;51.906;8.376;2023-04-07T02:20:57;11.83;;;7.83;;
19111;SDS011;9688;51.906;8.376;2023-04-07T02:23:45;11.97;;;8.13;;
19111;SDS011;9688;51.906;8.376;2023-04-07T02:26:32;11.00;;;7.87;;
19111;SDS011;9688;51.906;8.376;2023-04-07T02:29:18;10.67;;;7.30;;
19111;SDS011;9688;51.906;8.376;2023-04-07T02:32:04;11.53;;;7.60;;
19111;SDS011;9688;51.906;8.376;2023-04-07T02:34:50;9.67;;;6.97;;
19111;SDS011;9688;51.906;8.376;2023-04-07T02:37:37;13.97;;;7.70;;
19111;SDS011;9688;51.906;8.376;2023-04-07T02:40:23;10.87;;;7.23;;
19111;SDS011;9688;51.906;8.376;2023-04-07T02:43:09;10.83;;;7.90;;
19111;SDS011;9688;51.906;8.376;2023-04-07T02:45:54;12.90;;;8.17;;
19111;SDS011;9688;51.906;8.376;2023-04-07T02:48:40;10.47;;;7.30;;
19111;SDS011;9688;51.906;8.376;2023-04-07T02:51:25;11.07;;;7.50;;
19111;SDS011;9688;51.906;8.376;2023-04-07T02:54:13;10.20;;;7.80;;
19111;SDS011;9688;51.906;8.376;2023-04-07T02:56:58;11.60;;;8.00;;
19111;SDS011;9688;51.906;8.376;2023-04-07T02:59:44;10.87;;;7.93;;
19111;SDS011;9688;51.906;8.376;2023-04-07T03:02:30;13.60;;;8.10;;
19111;SDS011;9688;51.906;8.376;2023-04-07T03:05:16;10.67;;;8.07;;
19111;SDS011;9688;51.906;8.376;2023-04-07T03:08:02;12.03;;;8.17;;
19111;SDS011;9688;51.906;8.376;2023-04-07T03:10:49;12.17;;;7.80;;
19111;SDS011;9688;51.906;8.376;2023-04-07T03:13:34;13.60;;;7.73;;
19111;SDS011;9688;51.906;8.376;2023-04-07T03:16:20;12.90;;;8.40;;
19111;SDS011;9688;51.906;8.376;2023-04-07T03:19:06;13.37;;;8.33;;
19111;SDS011;9688;51.906;8.376;2023-04-07T03:21:51;12.63;;;8.27;;
19111;SDS011;9688;51.906;8.376;2023-04-07T03:24:37;10.53;;;7.90;;
19111;SDS011;9688;51.906;8.376;2023-04-07T03:27:25;13.90;;;9.33;;
19111;SDS011;9688;51.906;8.376;2023-04-07T03:30:11;11.70;;;8.07;;
19111;SDS011;9688;51.906;8.376;2023-04-07T03:32:59;13.90;;;8.53;;
19111;SDS011;9688;51.906;8.376;2023-04-07T03:35:45;11.40;;;7.63;;
19111;SDS011;9688;51.906;8.376;2023-04-07T03:38:30;14.87;;;8.37;;
19111;SDS011;9688;51.906;8.376;2023-04-07T03:41:16;14.70;;;9.50;;
19111;SDS011;9688;51.906;8.376;2023-04-07T03:44:03;15.03;;;9.87;;
19111;SDS011;9688;51.906;8.376;2023-04-07T03:46:50;16.10;;;9.63;;
19111;SDS011;9688;51.906;8.376;2023-04-07T03:49:36;15.30;;;9.13;;
19111;SDS011;9688;51.906;8.376;2023-04-07T03:52:22;16.07;;;9.60;;
19111;SDS011;9688;51.906;8.376;2023-04-07T03:55:08;16.50;;;9.63;;
19111;SDS011;9688;51.906;8.376;2023-04-07T03:57:54;16.33;;;9.30;;
19111;SDS011;9688;51.906;8.376;2023-04-07T04:00:41;13.10;;;8.63;;
19111;SDS011;9688;51.906;8.376;2023-04-07T04:03:27;15.27;;;9.60;;
19111;SDS011;9688;51.906;8.376;2023-04-07T04:06:12;16.37;;;9.73;;
19111;SDS011;9688;51.906;8.376;2023-04-07T04:08:57;13.97;;;9.03;;
19111;SDS011;9688;51.906;8.376;2023-04-07T04:11:43;13.83;;;8.70;;
19111;SDS011;9688;51.906;8.376;2023-04-07T04:14:29;15.00;;;9.07;;
19111;SDS011;9688;51.906;8.376;2023-04-07T04:17:16;14.93;;;9.30;;
19111;SDS011;9688;51.906;8.376;2023-04-07T04:20:04;13.40;;;8.77;;
19111;SDS011;9688;51.906;8.376;2023-04-07T04:22:51;16.43;;;10.60;;
19111;SDS011;9688;51.906;8.376;2023-04-07T04:25:37;15.90;;;9.10;;
19111;SDS011;9688;51.906;8.376;2023-04-07T04:28:24;15.30;;;8.87;;
19111;SDS011;9688;51.906;8.376;2023-04-07T04:31:09;13.13;;;9.17;;
19111;SDS011;9688;51.906;8.376;2023-04-07T04:33:56;15.27;;;9.73;;
19111;SDS011;9688;51.906;8.376;2023-04-07T04:36:42;17.10;;;10.10;;
19111;SDS011;9688;51.906;8.376;2023-04-07T04:39:27;16.27;;;9.97;;
19111;SDS011;9688;51.906;8.376;2023-04-07T04:42:13;14.87;;;9.67;;
19111;SDS011;9688;51.906;8.376;2023-04-07T04:44:59;15.83;;;10.13;;
19111;SDS011;9688;51.906;8.376;2023-04-07T04:47:45;15.30;;;8.93;;
19111;SDS011;9688;51.906;8.376;2023-04-07T04:50:31;16.33;;;9.33;;
19111;SDS011;9688;51.906;8.376;2023-04-07T04:53:17;18.37;;;11.00;;
19111;SDS011;9688;51.906;8.376;2023-04-07T04:56:02;18.17;;;10.70;;
19111;SDS011;9688;51.906;8.376;2023-04-07T04:58:48;18.83;;;10.03;;
19111;SDS011;9688;51.906;8.376;2023-04-07T05:01:34;16.63;;;10.33;;
19111;SDS011;9688;51.906;8.376;2023-04-07T05:04:19;13.93;;;9.57;;
19111;SDS011;9688;51.906;8.376;2023-04-07T05:07:06;16.63;;;9.73;;
19111;SDS011;9688;51.906;8.376;2023-04-07T05:09:52;16.17;;;9.53;;
19111;SDS011;9688;51.906;8.376;2023-04-07T05:12:39;18.73;;;9.93;;
19111;SDS011;9688;51.906;8.376;2023-04-07T05:15:24;19.57;;;10.90;;
19111;SDS011;9688;51.906;8.376;2023-04-07T05:18:10;15.50;;;9.53;;
19111;SDS011;9688;51.906;8.376;2023-04-07T05:20:55;14.90;;;8.70;;
19111;SDS011;9688;51.906;8.376;2023-04-07T05:23:43;19.50;;;10.40;;
19111;SDS011;9688;51.906;8.376;2023-04-07T05:26:28;19.20;;;9.97;;
19111;SDS011;9688;51.906;8.376;2023-04-07T05:29:14;14.93;;;9.50;;
19111;SDS011;9688;51.906;8.376;2023-04-07T05:32:00;15.50;;;10.10;;
19111;SDS011;9688;51.906;8.376;2023-04-07T05:34:46;16.70;;;10.00;;
19111;SDS011;9688;51.906;8.376;2023-04-07T05:37:32;16.93;;;9.67;;
19111;SDS011;9688;51.906;8.376;2023-04-07T05:40:19;13.47;;;8.60;;
19111;SDS011;9688;51.906;8.376;2023-04-07T05:43:04;16.67;;;9.77;;
19111;SDS011;9688;51.906;8.376;2023-04-07T05:45:50;15.63;;;9.53;;
19111;SDS011;9688;51.906;8.376;2023-04-07T05:48:37;15.23;;;9.43;;
19111;SDS011;9688;51.906;8.376;2023-04-07T05:51:22;16.13;;;8.97;;
19111;SDS011;9688;51.906;8.376;2023-04-07T05:54:09;14.97;;;9.70;;
19111;SDS011;9688;51.906;8.376;2023-04-07T05:56:56;15.20;;;9.47;;
19111;SDS011;9688;51.906;8.376;2023-04-07T05:59:41;14.57;;;9.00;;
19111;SDS011;9688;51.906;8.376;2023-04-07T06:02:30;17.07;;;9.73;;
19111;SDS011;9688;51.906;8.376;2023-04-07T06:05:15;14.80;;;9.57;;
19111;SDS011;9688;51.906;8.376;2023-04-07T06:08:01;16.70;;;9.57;;
19111;SDS011;9688;51.906;8.376;2023-04-07T06:10:46;17.50;;;9.40;;
19111;SDS011;9688;51.906;8.376;2023-04-07T06:13:34;16.70;;;9.63;;
19111;SDS011;9688;51.906;8.376;2023-04-07T06:16:19;15.67;;;9.50;;
19111;SDS011;9688;51.906;8.376;2023-04-07T06:19:05;15.47;;;9.87;;
19111;SDS011;9688;51.906;8.376;2023-04-07T06:21:51;15.67;;;9.63;;
19111;SDS011;9688;51.906;8.376;2023-04-07T06:24:36;14.83;;;9.40;;
19111;SDS011;9688;51.906;8.376;2023-04-07T06:27:23;15.77;;;9.27;;
19111;SDS011;9688;51.906;8.376;2023-04-07T06:30:10;14.07;;;9.63;;
19111;SDS011;9688;51.906;8.376;2023-04-07T06:32:58;16.03;;;9.67;;
19111;SDS011;9688;51.906;8.376;2023-04-07T06:35:44;14.63;;;9.27;;
19111;SDS011;9688;51.906;8.376;2023-04-07T06:38:30;14.30;;;9.47;;
19111;SDS011;9688;51.906;8.376;2023-04-07T06:41:16;14.97;;;9.37;;
19111;SDS011;9688;51.906;8.376;2023-04-07T06:44:01;14.80;;;9.37;;
19111;SDS011;9688;51.906;8.376;2023-04-07T06:46:48;14.40;;;9.30;;
19111;SDS011;9688;51.906;8.376;2023-04-07T06:49:38;13.63;;;8.93;;
19111;SDS011;9688;51.906;8.376;2023-04-07T06:52:24;14.00;;;8.80;;
19111;SDS011;9688;51.906;8.376;2023-04-07T06:55:09;13.33;;;8.43;;
19111;SDS011;9688;51.906;8.376;2023-04-07T06:57:55;13.80;;;8.83;;
19111;SDS011;9688;51.906;8.376;2023-04-07T07:00:41;11.63;;;7.73;;
19111;SDS011;9688;51.906;8.376;2023-04-07T07:03:28;14.40;;;8.43;;
19111;SDS011;9688;51.906;8.376;2023-04-07T07:06:14;14.03;;;7.97;;
19111;SDS011;9688;51.906;8.376;2023-04-07T07:09:00;13.90;;;8.53;;
19111;SDS011;9688;51.906;8.376;2023-04-07T07:11:45;13.63;;;8.87;;
19111;SDS011;9688;51.906;8.376;2023-04-07T07:14:31;10.57;;;8.43;;
19111;SDS011;9688;51.906;8.376;2023-04-07T07:17:17;16.47;;;9.17;;
19111;SDS011;9688;51.906;8.376;2023-04-07T07:20:07;12.30;;;8.30;;
19111;SDS011;9688;51.906;8.376;2023-04-07T07:22:54;11.20;;;7.67;;
19111;SDS011;9688;51.906;8.376;2023-04-07T07:25:39;11.57;;;7.40;;
19111;SDS011;9688;51.906;8.376;2023-04-07T07:28:25;12.10;;;8.00;;
19111;SDS011;9688;51.906;8.376;2023-04-07T07:31:12;10.63;;;7.70;;
19111;SDS011;9688;51.906;8.376;2023-04-07T07:33:58;10.87;;;7.33;;
19111;SDS011;9688;51.906;8.376;2023-04-07T07:36:45;9.33;;;6.80;;
19111;SDS011;9688;51.906;8.376;2023-04-07T07:39:31;8.57;;;6.20;;
19111;SDS011;9688;51.906;8.376;2023-04-07T07:42:16;9.77;;;6.20;;
19111;SDS011;9688;51.906;8.376;2023-04-07T07:45:02;8.70;;;6.50;;
19111;SDS011;9688;51.906;8.376;2023-04-07T07:47:49;10.53;;;6.53;;
19111;SDS011;9688;51.906;8.376;2023-04-07T07:50:35;7.70;;;6.27;;
19111;SDS011;9688;51.906;8.376;2023-04-07T07:53:22;9.07;;;6.30;;
19111;SDS011;9688;51.906;8.376;2023-04-07T07:56:08;8.47;;;5.87;;
19111;SDS011;9688;51.906;8.376;2023-04-07T07:58:54;8.57;;;6.03;;
19111;SDS011;9688;51.906;8.376;2023-04-07T08:01:40;6.60;;;5.10;;
19111;SDS011;9688;51.906;8.376;2023-04-07T08:04:26;7.37;;;5.53;;
19111;SDS011;9688;51.906;8.376;2023-04-07T08:07:12;6.70;;;4.40;;
19111;SDS011;9688;51.906;8.376;2023-04-07T08:09:59;6.83;;;5.03;;
19111;SDS011;9688;51.906;8.376;2023-04-07T08:12:53;5.17;;;4.10;;
19111;SDS011;9688;51.906;8.376;2023-04-07T08:15:38;7.23;;;4.60;;
19111;SDS011;9688;51.906;8.376;2023-04-07T08:18:24;4.30;;;3.90;;
19111;SDS011;9688;51.906;8.376;2023-04-07T08:21:09;4.23;;;3.83;;
19111;SDS011;9688;51.906;8.376;2023-04-07T08:23:55;5.20;;;4.20;;
19111;SDS011;9688;51.906;8.376;2023-04-07T08:26:43;5.00;;;4.20;;
19111;SDS011;9688;51.906;8.376;2023-04-07T08:29:28;4.10;;;3.70;;
19111;SDS011;9688;51.906;8.376;2023-04-07T08:32:14;4.90;;;3.77;;
19111;SDS011;9688;51.906;8.376;2023-04-07T08:35:00;4.97;;;4.07;;
19111;SDS011;9688;51.906;8.376;2023-04-07T08:37:45;3.77;;;3.47;;
19111;SDS011;9688;51.906;8.376;2023-04-07T08:40:32;4.33;;;3.93;;
19111;SDS011;9688;51.906;8.376;2023-04-07T08:43:20;4.27;;;3.87;;
19111;SDS011;9688;51.906;8.376;2023-04-07T08:46:08;4.67;;;3.77;;
19111;SDS011;9688;51.906;8.376;2023-04-07T08:48:55;3.63;;;3.33;;
19111;SDS011;9688;51.906;8.376;2023-04-07T08:51:43;3.80;;;3.50;;
19111;SDS011;9688;51.906;8.376;2023-04-07T08:54:30;4.73;;;3.53;;
19111;SDS011;9688;51.906;8.376;2023-04-07T08:57:17;3.77;;;3.47;;
19111;SDS011;9688;51.906;8.376;2023-04-07T09:00:06;4.23;;;3.83;;
19111;SDS011;9688;51.906;8.376;2023-04-07T09:02:53;3.60;;;3.30;;
19111;SDS011;9688;51.906;8.376;2023-04-07T09:05:43;4.37;;;3.67;;
19111;SDS011;9688;51.906;8.376;2023-04-07T09:08:30;4.63;;;3.73;;
19111;SDS011;9688;51.906;8.376;2023-04-07T09:11:16;3.50;;;3.30;;
19111;SDS011;9688;51.906;8.376;2023-04-07T09:14:02;4.23;;;3.83;;
19111;SDS011;9688;51.906;8.376;2023-04-07T09:16:50;4.03;;;3.30;;
19111;SDS011;9688;51.906;8.376;2023-04-07T09:19:35;3.40;;;3.10;;
19111;SDS011;9688;51.906;8.376;2023-04-07T09:22:33;3.87;;;3.57;;
19111;SDS011;9688;51.906;8.376;2023-04-07T09:25:20;4.10;;;3.70;;
19111;SDS011;9688;51.906;8.376;2023-04-07T09:28:08;5.47;;;3.47;;
19111;SDS011;9688;51.906;8.376;2023-04-07T09:30:54;3.30;;;3.10;;
19111;SDS011;9688;51.906;8.376;2023-04-07T09:33:41;3.70;;;3.00;;
19111;SDS011;9688;51.906;8.376;2023-04-07T09:36:28;3.30;;;3.00;;
19111;SDS011;9688;51.906;8.376;2023-04-07T09:39:25;3.53;;;3.23;;
19111;SDS011;9688;51.906;8.376;2023-04-07T09:42:11;3.77;;;3.40;;
19111;SDS011;9688;51.906;8.376;2023-04-07T09:44:57;3.30;;;3.00;;
19111;SDS011;9688;51.906;8.376;2023-04-07T09:47:43;3.40;;;3.10;;
19111;SDS011;9688;51.906;8.376;2023-04-07T09:50:31;4.90;;;3.27;;
19111;SDS011;9688;51.906;8.376;2023-04-07T09:53:19;3.43;;;3.13;;
19111;SDS011;9688;51.906;8.376;2023-04-07T09:56:06;3.13;;;2.90;;
19111;SDS011;9688;51.906;8.376;2023-04-07T09:58:53;3.17;;;2.97;;
19111;SDS011;9688;51.906;8.376;2023-04-07T10:01:39;3.50;;;3.20;;
19111;SDS011;9688;51.906;8.376;2023-04-07T10:04:27;2.80;;;2.60;;
19111;SDS011;9688;51.906;8.376;2023-04-07T10:07:14;4.87;;;2.90;;
19111;SDS011;9688;51.906;8.376;2023-04-07T10:10:04;2.93;;;2.73;;
19111;SDS011;9688;51.906;8.376;2023-04-07T10:12:51;3.03;;;2.83;;
19111;SDS011;9688;51.906;8.376;2023-04-07T10:15:39;3.10;;;2.87;;
19111;SDS011;9688;51.906;8.376;2023-04-07T10:18:27;3.37;;;3.07;;
19111;SDS011;9688;51.906;8.376;2023-04-07T10:21:14;3.10;;;2.90;;
19111;SDS011;9688;51.906;8.376;2023-04-07T10:24:04;3.30;;;3.00;;
19111;SDS011;9688;51.906;8.376;2023-04-07T10:27:05;3.90;;;2.50;;
19111;SDS011;9688;51.906;8.376;2023-04-07T10:29:54;2.70;;;2.50;;
19111;SDS011;9688;51.906;8.376;2023-04-07T10:32:45;2.90;;;2.70;;
19111;SDS011;9688;51.906;8.376;2023-04-07T10:42:05;3.47;;;3.20;;
19111;SDS011;9688;51.906;8.376;2023-04-07T10:44:51;3.20;;;2.90;;
19111;SDS011;9688;51.906;8.376;2023-04-07T10:47:39;3.50;;;2.80;;
19111;SDS011;9688;51.906;8.376;2023-04-07T10:51:11;2.93;;;2.73;;
19111;SDS011;9688;51.906;8.376;2023-04-07T10:57:07;3.07;;;2.87;;
19111;SDS011;9688;51.906;8.376;2023-04-07T11:03:11;3.37;;;2.60;;
19111;SDS011;9688;51.906;8.376;2023-04-07T11:06:02;2.90;;;2.70;;
19111;SDS011;9688;51.906;8.376;2023-04-07T11:08:49;2.77;;;2.57;;
19111;SDS011;9688;51.906;8.376;2023-04-07T11:11:37;2.30;;;2.20;;
19111;SDS011;9688;51.906;8.376;2023-04-07T11:14:24;2.20;;;2.10;;
19111;SDS011;9688;51.906;8.376;2023-04-07T11:17:13;2.40;;;2.30;;
19111;SDS011;9688;51.906;8.376;2023-04-07T11:20:04;2.40;;;2.20;;
19111;SDS011;9688;51.906;8.376;2023-04-07T11:22:58;2.50;;;2.30;;
19111;SDS011;9688;51.906;8.376;2023-04-07T11:25:45;2.70;;;2.10;;
19111;SDS011;9688;51.906;8.376;2023-04-07T11:28:33;2.37;;;2.20;;
19111;SDS011;9688;51.906;8.376;2023-04-07T11:31:21;2.93;;;2.60;;
19111;SDS011;9688;51.906;8.376;2023-04-07T11:34:07;2.47;;;2.37;;
19111;SDS011;9688;51.906;8.376;2023-04-07T11:36:53;2.50;;;2.30;;
19111;SDS011;9688;51.906;8.376;2023-04-07T11:39:42;2.40;;;2.30;;
19111;SDS011;9688;51.906;8.376;2023-04-07T11:42:30;3.20;;;2.77;;
19111;SDS011;9688;51.906;8.376;2023-04-07T11:45:18;2.60;;;2.40;;
19111;SDS011;9688;51.906;8.376;2023-04-07T11:48:04;2.37;;;2.17;;
19111;SDS011;9688;51.906;8.376;2023-04-07T11:51:14;2.17;;;1.97;;
19111;SDS011;9688;51.906;8.376;2023-04-07T11:54:00;2.00;;;1.90;;
19111;SDS011;9688;51.906;8.376;2023-04-07T11:56:47;2.37;;;2.27;;
19111;SDS011;9688;51.906;8.376;2023-04-07T11:59:37;2.13;;;2.03;;
19111;SDS011;9688;51.906;8.376;2023-04-07T12:02:31;2.50;;;2.40;;
19111;SDS011;9688;51.906;8.376;2023-04-07T12:05:17;2.47;;;2.30;;
19111;SDS011;9688;51.906;8.376;2023-04-07T12:08:04;2.90;;;2.70;;
19111;SDS011;9688;51.906;8.376;2023-04-07T12:10:52;2.30;;;2.20;;
19111;SDS011;9688;51.906;8.376;2023-04-07T12:13:47;2.20;;;2.10;;
19111;SDS011;9688;51.906;8.376;2023-04-07T12:16:36;2.33;;;2.20;;
19111;SDS011;9688;51.906;8.376;2023-04-07T12:19:24;2.30;;;2.20;;
19111;SDS011;9688;51.906;8.376;2023-04-07T12:22:10;2.10;;;2.00;;
19111;SDS011;9688;51.906;8.376;2023-04-07T12:24:56;2.83;;;2.10;;
19111;SDS011;9688;51.906;8.376;2023-04-07T12:27:42;2.00;;;1.90;;
19111;SDS011;9688;51.906;8.376;2023-04-07T12:30:27;2.13;;;2.03;;
19111;SDS011;9688;51.906;8.376;2023-04-07T12:33:13;2.50;;;2.37;;
19111;SDS011;9688;51.906;8.376;2023-04-07T12:36:01;2.83;;;2.63;;
19111;SDS011;9688;51.906;8.376;2023-04-07T12:38:49;3.10;;;2.80;;
19111;SDS011;9688;51.906;8.376;2023-04-07T12:41:35;3.40;;;3.17;;
19111;SDS011;9688;51.906;8.376;2023-04-07T12:44:21;2.80;;;2.60;;
19111;SDS011;9688;51.906;8.376;2023-04-07T12:47:07;2.63;;;2.43;;
19111;SDS011;9688;51.906;8.376;2023-04-07T12:49:55;2.53;;;2.37;;
19111;SDS011;9688;51.906;8.376;2023-04-07T12:52:43;2.90;;;2.70;;
19111;SDS011;9688;51.906;8.376;2023-04-07T12:55:29;3.30;;;3.10;;
19111;SDS011;9688;51.906;8.376;2023-04-07T12:58:19;3.00;;;2.80;;
19111;SDS011;9688;51.906;8.376;2023-04-07T13:01:08;2.60;;;2.40;;
19111;SDS011;9688;51.906;8.376;2023-04-07T13:03:53;3.93;;;2.93;;
19111;SDS011;9688;51.906;8.376;2023-04-07T13:06:39;2.80;;;2.60;;
19111;SDS011;9688;51.906;8.376;2023-04-07T13:09:26;2.63;;;2.43;;
19111;SDS011;9688;51.906;8.376;2023-04-07T13:12:12;2.73;;;2.53;;
19111;SDS011;9688;51.906;8.376;2023-04-07T13:14:59;2.97;;;2.77;;
19111;SDS011;9688;51.906;8.376;2023-04-07T13:17:45;2.70;;;2.50;;
19111;SDS011;9688;51.906;8.376;2023-04-07T13:20:32;4.50;;;3.77;;
19111;SDS011;9688;51.906;8.376;2023-04-07T13:23:20;2.67;;;2.47;;
19111;SDS011;9688;51.906;8.376;2023-04-07T13:26:07;3.63;;;3.00;;
19111;SDS011;9688;51.906;8.376;2023-04-07T13:28:53;2.97;;;2.70;;
19111;SDS011;9688;51.906;8.376;2023-04-07T13:31:44;3.00;;;2.80;;
19111;SDS011;9688;51.906;8.376;2023-04-07T13:34:30;5.90;;;3.30;;
19111;SDS011;9688;51.906;8.376;2023-04-07T13:37:16;3.00;;;2.80;;
19111;SDS011;9688;51.906;8.376;2023-04-07T13:40:06;3.90;;;3.40;;
19111;SDS011;9688;51.906;8.376;2023-04-07T13:42:54;3.53;;;3.23;;
19111;SDS011;9688;51.906;8.376;2023-04-07T13:45:40;4.13;;;3.50;;
19111;SDS011;9688;51.906;8.376;2023-04-07T13:48:26;4.77;;;3.43;;
19111;SDS011;9688;51.906;8.376;2023-04-07T13:51:12;4.27;;;3.90;;
19111;SDS011;9688;51.906;8.376;2023-04-07T13:53:58;3.83;;;3.53;;
19111;SDS011;9688;51.906;8.376;2023-04-07T13:56:44;3.90;;;3.60;;
19111;SDS011;9688;51.906;8.376;2023-04-07T13:59:33;4.07;;;3.77;;
19111;SDS011;9688;51.906;8.376;2023-04-07T14:02:19;3.97;;;3.67;;
19111;SDS011;9688;51.906;8.376;2023-04-07T14:05:05;4.23;;;3.83;;
19111;SDS011;9688;51.906;8.376;2023-04-07T14:07:51;4.30;;;3.90;;
19111;SDS011;9688;51.906;8.376;2023-04-07T14:10:38;4.10;;;3.80;;
19111;SDS011;9688;51.906;8.376;2023-04-07T14:13:24;7.27;;;3.70;;
19111;SDS011;9688;51.906;8.376;2023-04-07T14:16:11;5.57;;;4.30;;
19111;SDS011;9688;51.906;8.376;2023-04-07T14:18:58;5.03;;;4.40;;
19111;SDS011;9688;51.906;8.376;2023-04-07T14:21:44;4.40;;;4.00;;
19111;SDS011;9688;51.906;8.376;2023-04-07T14:24:29;4.50;;;4.07;;
19111;SDS011;9688;51.906;8.376;2023-04-07T14:27:14;3.80;;;3.57;;
19111;SDS011;9688;51.906;8.376;2023-04-07T14:30:06;5.13;;;3.90;;
19111;SDS011;9688;51.906;8.376;2023-04-07T14:32:54;4.03;;;3.73;;
19111;SDS011;9688;51.906;8.376;2023-04-07T14:35:40;4.40;;;3.67;;
19111;SDS011;9688;51.906;8.376;2023-04-07T14:38:26;4.77;;;3.93;;
19111;SDS011;9688;51.906;8.376;2023-04-07T14:41:11;4.30;;;3.93;;
19111;SDS011;9688;51.906;8.376;2023-04-07T14:43:57;3.60;;;3.30;;
19111;SDS011;9688;51.906;8.376;2023-04-07T14:46:43;3.57;;;3.27;;
19111;SDS011;9688;51.906;8.376;2023-04-07T14:49:30;3.80;;;3.40;;
19111;SDS011;9688;51.906;8.376;2023-04-07T14:52:16;3.20;;;2.90;;
19111;SDS011;9688;51.906;8.376;2023-04-07T14:55:03;3.40;;;3.20;;
19111;SDS011;9688;51.906;8.376;2023-04-07T14:57:50;3.53;;;3.23;;
19111;SDS011;9688;51.906;8.376;2023-04-07T15:00:36;2.50;;;2.40;;
19111;SDS011;9688;51.906;8.376;2023-04-07T15:03:22;3.87;;;3.20;;
19111;SDS011;9688;51.906;8.376;2023-04-07T15:06:10;3.80;;;3.40;;
19111;SDS011;9688;51.906;8.376;2023-04-07T15:08:57;3.40;;;3.13;;
19111;SDS011;9688;51.906;8.376;2023-04-07T15:11:42;4.13;;;3.30;;
19111;SDS011;9688;51.906;8.376;2023-04-07T15:14:28;3.47;;;3.20;;
19111;SDS011;9688;51.906;8.376;2023-04-07T15:17:14;3.77;;;3.47;;
19111;SDS011;9688;51.906;8.376;2023-04-07T15:20:00;3.77;;;3.13;;
19111;SDS011;9688;51.906;8.376;2023-04-07T15:22:50;4.27;;;3.47;;
19111;SDS011;9688;51.906;8.376;2023-04-07T15:25:36;4.03;;;3.73;;
19111;SDS011;9688;51.906;8.376;2023-04-07T15:28:22;5.77;;;3.73;;
19111;SDS011;9688;51.906;8.376;2023-04-07T15:31:08;4.33;;;3.33;;
19111;SDS011;9688;51.906;8.376;2023-04-07T15:33:54;4.70;;;3.60;;
19111;SDS011;9688;51.906;8.376;2023-04-07T15:36:39;4.00;;;3.37;;
19111;SDS011;9688;51.906;8.376;2023-04-07T15:39:27;4.40;;;4.00;;
19111;SDS011;9688;51.906;8.376;2023-04-07T15:42:13;4.07;;;3.67;;
19111;SDS011;9688;51.906;8.376;2023-04-07T15:45:00;3.90;;;3.53;;
19111;SDS011;9688;51.906;8.376;2023-04-07T15:47:45;3.77;;;3.47;;
19111;SDS011;9688;51.906;8.376;2023-04-07T15:50:31;3.90;;;3.47;;
19111;SDS011;9688;51.906;8.376;2023-04-07T15:53:17;3.70;;;3.03;;
19111;SDS011;9688;51.906;8.376;2023-04-07T15:56:05;3.17;;;2.97;;
19111;SDS011;9688;51.906;8.376;2023-04-07T15:58:52;3.80;;;3.50;;
19111;SDS011;9688;51.906;8.376;2023-04-07T16:01:40;4.13;;;3.23;;
19111;SDS011;9688;51.906;8.376;2023-04-07T16:04:26;3.80;;;3.50;;
19111;SDS011;9688;51.906;8.376;2023-04-07T16:07:12;3.80;;;3.40;;
19111;SDS011;9688;51.906;8.376;2023-04-07T16:10:00;3.70;;;3.40;;
19111;SDS011;9688;51.906;8.376;2023-04-07T16:12:54;3.93;;;3.60;;
19111;SDS011;9688;51.906;8.376;2023-04-07T16:15:40;5.07;;;3.40;;
19111;SDS011;9688;51.906;8.376;2023-04-07T16:18:27;3.70;;;3.40;;
19111;SDS011;9688;51.906;8.376;2023-04-07T16:21:15;4.00;;;3.60;;
19111;SDS011;9688;51.906;8.376;2023-04-07T16:24:01;4.43;;;4.03;;
19111;SDS011;9688;51.906;8.376;2023-04-07T16:26:47;3.70;;;3.40;;
19111;SDS011;9688;51.906;8.376;2023-04-07T16:29:35;3.50;;;3.17;;
19111;SDS011;9688;51.906;8.376;2023-04-07T16:32:21;4.00;;;3.60;;
19111;SDS011;9688;51.906;8.376;2023-04-07T16:35:07;7.20;;;3.83;;
19111;SDS011;9688;51.906;8.376;2023-04-07T16:37:54;3.90;;;3.30;;
19111;SDS011;9688;51.906;8.376;2023-04-07T16:40:44;3.93;;;3.50;;
19111;SDS011;9688;51.906;8.376;2023-04-07T16:43:30;4.37;;;3.67;;
19111;SDS011;9688;51.906;8.376;2023-04-07T16:46:18;4.63;;;4.20;;
19111;SDS011;9688;51.906;8.376;2023-04-07T16:49:09;5.23;;;3.57;;
19111;SDS011;9688;51.906;8.376;2023-04-07T16:51:56;4.83;;;3.50;;
19111;SDS011;9688;51.906;8.376;2023-04-07T16:54:42;4.20;;;3.80;;
19111;SDS011;9688;51.906;8.376;2023-04-07T16:57:28;5.27;;;3.77;;
19111;SDS011;9688;51.906;8.376;2023-04-07T17:00:15;4.30;;;3.90;;
19111;SDS011;9688;51.906;8.376;2023-04-07T17:03:03;5.53;;;4.40;;
19111;SDS011;9688;51.906;8.376;2023-04-07T17:05:49;4.37;;;3.97;;
19111;SDS011;9688;51.906;8.376;2023-04-07T17:08:35;5.37;;;4.40;;